sensor_id;sensor_type;location;lat;lon;timestamp;P1;durP1;ratioP1;P2;durP2;ratioP2
60430;SDS011;46285;45.122;20.726;2022-07-23T00:00:52;12.57;;;5.18;;
60430;SDS011;46285;45.122;20.726;2022-07-23T00:03:18;10.70;;;5.43;;
60430;SDS011;46285;45.122;20.726;2022-07-23T00:05:44;15.68;;;5.32;;
60430;SDS011;46285;45.122;20.726;2022-07-23T00:08:10;13.73;;;5.18;;
60430;SDS011;46285;45.122;20.726;2022-07-23T00:10:37;11.70;;;5.85;;
60430;SDS011;46285;45.122;20.726;2022-07-23T00:13:03;12.27;;;5.77;;
60430;SDS011;46285;45.122;20.726;2022-07-23T00:15:29;14.02;;;5.20;;
60430;SDS011;46285;45.122;20.726;2022-07-23T00:17:55;11.15;;;4.95;;
60430;SDS011;46285;45.122;20.726;2022-07-23T00:20:22;12.00;;;4.75;;
60430;SDS011;46285;45.122;20.726;2022-07-23T00:22:48;12.60;;;5.00;;
60430;SDS011;46285;45.122;20.726;2022-07-23T00:25:15;8.60;;;4.35;;
60430;SDS011;46285;45.122;20.726;2022-07-23T00:27:41;10.60;;;4.97;;
60430;SDS011;46285;45.122;20.726;2022-07-23T00:30:08;10.27;;;4.78;;
60430;SDS011;46285;45.122;20.726;2022-07-23T00:32:50;13.63;;;4.80;;
60430;SDS011;46285;45.122;20.726;2022-07-23T00:35:19;9.73;;;4.18;;
60430;SDS011;46285;45.122;20.726;2022-07-23T00:37:45;11.48;;;4.55;;
60430;SDS011;46285;45.122;20.726;2022-07-23T00:40:11;7.95;;;4.47;;
60430;SDS011;46285;45.122;20.726;2022-07-23T00:42:38;9.50;;;4.18;;
60430;SDS011;46285;45.122;20.726;2022-07-23T00:45:04;10.25;;;5.28;;
60430;SDS011;46285;45.122;20.726;2022-07-23T00:47:30;9.18;;;4.88;;
60430;SDS011;46285;45.122;20.726;2022-07-23T00:49:56;11.07;;;4.55;;
60430;SDS011;46285;45.122;20.726;2022-07-23T00:52:23;9.45;;;4.65;;
60430;SDS011;46285;45.122;20.726;2022-07-23T00:54:49;10.15;;;5.35;;
60430;SDS011;46285;45.122;20.726;2022-07-23T00:57:15;8.30;;;4.65;;
60430;SDS011;46285;45.122;20.726;2022-07-23T00:59:42;8.80;;;4.22;;
60430;SDS011;46285;45.122;20.726;2022-07-23T01:02:08;13.25;;;5.97;;
60430;SDS011;46285;45.122;20.726;2022-07-23T01:04:35;9.07;;;3.90;;
60430;SDS011;46285;45.122;20.726;2022-07-23T01:07:01;10.35;;;5.05;;
60430;SDS011;46285;45.122;20.726;2022-07-23T01:09:27;8.02;;;4.35;;
60430;SDS011;46285;45.122;20.726;2022-07-23T01:11:54;10.57;;;5.03;;
60430;SDS011;46285;45.122;20.726;2022-07-23T01:14:21;10.20;;;4.05;;
60430;SDS011;46285;45.122;20.726;2022-07-23T01:16:47;10.85;;;4.60;;
60430;SDS011;46285;45.122;20.726;2022-07-23T01:19:14;9.25;;;4.22;;
60430;SDS011;46285;45.122;20.726;2022-07-23T01:21:45;10.03;;;4.37;;
60430;SDS011;46285;45.122;20.726;2022-07-23T01:24:12;9.38;;;4.47;;
60430;SDS011;46285;45.122;20.726;2022-07-23T01:26:40;10.27;;;4.53;;
60430;SDS011;46285;45.122;20.726;2022-07-23T01:29:06;11.50;;;4.78;;
60430;SDS011;46285;45.122;20.726;2022-07-23T01:31:32;9.27;;;4.65;;
60430;SDS011;46285;45.122;20.726;2022-07-23T01:33:58;14.90;;;5.03;;
60430;SDS011;46285;45.122;20.726;2022-07-23T01:36:25;12.00;;;5.18;;
60430;SDS011;46285;45.122;20.726;2022-07-23T01:38:51;11.45;;;4.50;;
60430;SDS011;46285;45.122;20.726;2022-07-23T01:41:17;10.20;;;4.82;;
60430;SDS011;46285;45.122;20.726;2022-07-23T01:43:44;8.60;;;4.53;;
60430;SDS011;46285;45.122;20.726;2022-07-23T01:46:10;11.65;;;4.50;;
60430;SDS011;46285;45.122;20.726;2022-07-23T01:48:36;10.43;;;4.82;;
60430;SDS011;46285;45.122;20.726;2022-07-23T01:51:02;9.68;;;4.43;;
60430;SDS011;46285;45.122;20.726;2022-07-23T01:53:29;8.85;;;4.57;;
60430;SDS011;46285;45.122;20.726;2022-07-23T01:55:58;9.48;;;4.65;;
60430;SDS011;46285;45.122;20.726;2022-07-23T01:58:25;13.00;;;4.47;;
60430;SDS011;46285;45.122;20.726;2022-07-23T02:00:51;14.15;;;5.38;;
60430;SDS011;46285;45.122;20.726;2022-07-23T02:03:18;15.98;;;5.25;;
60430;SDS011;46285;45.122;20.726;2022-07-23T02:05:44;14.07;;;5.25;;
60430;SDS011;46285;45.122;20.726;2022-07-23T02:08:10;10.48;;;5.00;;
60430;SDS011;46285;45.122;20.726;2022-07-23T02:10:36;7.72;;;4.80;;
60430;SDS011;46285;45.122;20.726;2022-07-23T02:13:02;11.02;;;5.18;;
60430;SDS011;46285;45.122;20.726;2022-07-23T02:15:29;12.48;;;5.90;;
60430;SDS011;46285;45.122;20.726;2022-07-23T02:17:55;12.05;;;5.20;;
60430;SDS011;46285;45.122;20.726;2022-07-23T02:20:21;10.02;;;5.22;;
60430;SDS011;46285;45.122;20.726;2022-07-23T02:22:48;11.55;;;6.15;;
60430;SDS011;46285;45.122;20.726;2022-07-23T02:25:14;11.45;;;5.15;;
60430;SDS011;46285;45.122;20.726;2022-07-23T02:27:40;15.25;;;6.22;;
60430;SDS011;46285;45.122;20.726;2022-07-23T02:30:07;13.93;;;7.18;;
60430;SDS011;46285;45.122;20.726;2022-07-23T02:32:33;11.05;;;5.35;;
60430;SDS011;46285;45.122;20.726;2022-07-23T02:35:00;12.45;;;7.65;;
60430;SDS011;46285;45.122;20.726;2022-07-23T02:37:26;15.98;;;7.00;;
60430;SDS011;46285;45.122;20.726;2022-07-23T02:39:53;9.80;;;5.63;;
60430;SDS011;46285;45.122;20.726;2022-07-23T02:42:19;11.45;;;5.68;;
60430;SDS011;46285;45.122;20.726;2022-07-23T02:44:46;12.57;;;6.05;;
60430;SDS011;46285;45.122;20.726;2022-07-23T02:47:12;10.88;;;6.40;;
60430;SDS011;46285;45.122;20.726;2022-07-23T02:49:38;13.68;;;6.25;;
60430;SDS011;46285;45.122;20.726;2022-07-23T02:52:04;20.55;;;10.40;;
60430;SDS011;46285;45.122;20.726;2022-07-23T02:54:30;16.80;;;7.15;;
60430;SDS011;46285;45.122;20.726;2022-07-23T02:56:56;13.90;;;7.07;;
60430;SDS011;46285;45.122;20.726;2022-07-23T02:59:23;17.60;;;8.90;;
60430;SDS011;46285;45.122;20.726;2022-07-23T03:01:49;13.57;;;7.80;;
60430;SDS011;46285;45.122;20.726;2022-07-23T03:04:15;13.07;;;7.50;;
60430;SDS011;46285;45.122;20.726;2022-07-23T03:06:41;17.90;;;8.20;;
60430;SDS011;46285;45.122;20.726;2022-07-23T03:09:07;17.20;;;8.80;;
60430;SDS011;46285;45.122;20.726;2022-07-23T03:11:34;15.73;;;8.13;;
60430;SDS011;46285;45.122;20.726;2022-07-23T03:14:00;18.02;;;9.15;;
60430;SDS011;46285;45.122;20.726;2022-07-23T03:16:26;17.80;;;9.10;;
60430;SDS011;46285;45.122;20.726;2022-07-23T03:18:52;15.02;;;8.68;;
60430;SDS011;46285;45.122;20.726;2022-07-23T03:21:18;16.02;;;9.70;;
60430;SDS011;46285;45.122;20.726;2022-07-23T03:23:44;12.52;;;9.10;;
60430;SDS011;46285;45.122;20.726;2022-07-23T03:26:10;18.48;;;9.35;;
60430;SDS011;46285;45.122;20.726;2022-07-23T03:28:37;14.70;;;7.53;;
60430;SDS011;46285;45.122;20.726;2022-07-23T03:31:03;18.50;;;8.98;;
60430;SDS011;46285;45.122;20.726;2022-07-23T03:33:29;19.30;;;9.43;;
60430;SDS011;46285;45.122;20.726;2022-07-23T03:35:55;16.30;;;8.52;;
60430;SDS011;46285;45.122;20.726;2022-07-23T03:38:21;16.48;;;8.38;;
60430;SDS011;46285;45.122;20.726;2022-07-23T03:40:47;14.57;;;8.35;;
60430;SDS011;46285;45.122;20.726;2022-07-23T03:43:14;16.08;;;8.65;;
60430;SDS011;46285;45.122;20.726;2022-07-23T03:45:40;18.13;;;9.30;;
60430;SDS011;46285;45.122;20.726;2022-07-23T03:48:06;16.33;;;9.00;;
60430;SDS011;46285;45.122;20.726;2022-07-23T03:50:32;19.35;;;9.57;;
60430;SDS011;46285;45.122;20.726;2022-07-23T03:52:59;18.58;;;9.38;;
60430;SDS011;46285;45.122;20.726;2022-07-23T03:55:25;14.55;;;8.63;;
60430;SDS011;46285;45.122;20.726;2022-07-23T03:57:52;14.27;;;9.23;;
60430;SDS011;46285;45.122;20.726;2022-07-23T04:00:18;17.63;;;9.20;;
60430;SDS011;46285;45.122;20.726;2022-07-23T04:02:44;18.90;;;10.20;;
60430;SDS011;46285;45.122;20.726;2022-07-23T04:05:10;20.48;;;10.07;;
60430;SDS011;46285;45.122;20.726;2022-07-23T04:07:36;17.70;;;8.93;;
60430;SDS011;46285;45.122;20.726;2022-07-23T04:10:03;18.17;;;9.05;;
60430;SDS011;46285;45.122;20.726;2022-07-23T04:12:29;23.00;;;9.00;;
60430;SDS011;46285;45.122;20.726;2022-07-23T04:14:55;19.80;;;9.32;;
60430;SDS011;46285;45.122;20.726;2022-07-23T04:17:21;17.20;;;9.52;;
60430;SDS011;46285;45.122;20.726;2022-07-23T04:19:48;13.70;;;9.07;;
60430;SDS011;46285;45.122;20.726;2022-07-23T04:22:14;13.57;;;8.82;;
60430;SDS011;46285;45.122;20.726;2022-07-23T04:24:40;17.88;;;8.73;;
60430;SDS011;46285;45.122;20.726;2022-07-23T04:27:06;14.35;;;8.18;;
60430;SDS011;46285;45.122;20.726;2022-07-23T04:29:32;16.45;;;8.88;;
60430;SDS011;46285;45.122;20.726;2022-07-23T04:31:58;19.27;;;7.97;;
60430;SDS011;46285;45.122;20.726;2022-07-23T04:34:24;27.92;;;8.68;;
60430;SDS011;46285;45.122;20.726;2022-07-23T04:36:52;14.07;;;8.60;;
60430;SDS011;46285;45.122;20.726;2022-07-23T04:39:18;14.20;;;8.32;;
60430;SDS011;46285;45.122;20.726;2022-07-23T04:41:44;16.98;;;7.25;;
60430;SDS011;46285;45.122;20.726;2022-07-23T04:44:10;16.83;;;8.07;;
60430;SDS011;46285;45.122;20.726;2022-07-23T04:46:37;10.65;;;7.53;;
60430;SDS011;46285;45.122;20.726;2022-07-23T04:49:03;13.98;;;8.15;;
60430;SDS011;46285;45.122;20.726;2022-07-23T04:51:29;19.45;;;8.07;;
60430;SDS011;46285;45.122;20.726;2022-07-23T04:53:55;14.88;;;8.18;;
60430;SDS011;46285;45.122;20.726;2022-07-23T04:56:22;14.03;;;6.93;;
60430;SDS011;46285;45.122;20.726;2022-07-23T04:58:48;14.88;;;7.47;;
60430;SDS011;46285;45.122;20.726;2022-07-23T05:01:14;12.45;;;7.57;;
60430;SDS011;46285;45.122;20.726;2022-07-23T05:03:40;13.60;;;7.10;;
60430;SDS011;46285;45.122;20.726;2022-07-23T05:06:06;15.30;;;6.75;;
60430;SDS011;46285;45.122;20.726;2022-07-23T05:08:32;13.10;;;6.65;;
60430;SDS011;46285;45.122;20.726;2022-07-23T05:10:59;10.27;;;6.38;;
60430;SDS011;46285;45.122;20.726;2022-07-23T05:13:25;13.75;;;6.53;;
60430;SDS011;46285;45.122;20.726;2022-07-23T05:15:51;13.23;;;7.57;;
60430;SDS011;46285;45.122;20.726;2022-07-23T05:18:17;14.90;;;6.43;;
60430;SDS011;46285;45.122;20.726;2022-07-23T05:20:44;13.23;;;6.00;;
60430;SDS011;46285;45.122;20.726;2022-07-23T05:23:10;10.70;;;6.05;;
60430;SDS011;46285;45.122;20.726;2022-07-23T05:25:36;13.88;;;7.45;;
60430;SDS011;46285;45.122;20.726;2022-07-23T05:28:02;13.07;;;6.32;;
60430;SDS011;46285;45.122;20.726;2022-07-23T05:30:28;11.63;;;5.80;;
60430;SDS011;46285;45.122;20.726;2022-07-23T05:32:55;14.82;;;5.60;;
60430;SDS011;46285;45.122;20.726;2022-07-23T05:35:21;13.63;;;6.32;;
60430;SDS011;46285;45.122;20.726;2022-07-23T05:37:47;12.27;;;5.40;;
60430;SDS011;46285;45.122;20.726;2022-07-23T05:40:13;11.95;;;6.75;;
60430;SDS011;46285;45.122;20.726;2022-07-23T05:42:40;9.73;;;5.00;;
60430;SDS011;46285;45.122;20.726;2022-07-23T05:45:07;11.40;;;5.13;;
60430;SDS011;46285;45.122;20.726;2022-07-23T05:47:44;11.25;;;5.47;;
60430;SDS011;46285;45.122;20.726;2022-07-23T05:50:10;9.48;;;4.85;;
60430;SDS011;46285;45.122;20.726;2022-07-23T05:52:37;17.33;;;5.20;;
60430;SDS011;46285;45.122;20.726;2022-07-23T05:55:03;11.45;;;5.78;;
60430;SDS011;46285;45.122;20.726;2022-07-23T05:57:29;15.20;;;6.93;;
60430;SDS011;46285;45.122;20.726;2022-07-23T05:59:56;12.37;;;6.00;;
60430;SDS011;46285;45.122;20.726;2022-07-23T06:02:22;12.07;;;5.07;;
60430;SDS011;46285;45.122;20.726;2022-07-23T06:04:49;9.45;;;5.25;;
60430;SDS011;46285;45.122;20.726;2022-07-23T06:07:15;17.85;;;5.40;;
60430;SDS011;46285;45.122;20.726;2022-07-23T06:09:41;11.23;;;4.97;;
60430;SDS011;46285;45.122;20.726;2022-07-23T06:12:07;14.23;;;5.22;;
60430;SDS011;46285;45.122;20.726;2022-07-23T06:14:34;20.25;;;5.65;;
60430;SDS011;46285;45.122;20.726;2022-07-23T06:17:00;10.15;;;5.28;;
60430;SDS011;46285;45.122;20.726;2022-07-23T06:19:26;13.05;;;4.95;;
60430;SDS011;46285;45.122;20.726;2022-07-23T06:21:52;10.15;;;4.60;;
60430;SDS011;46285;45.122;20.726;2022-07-23T06:24:18;14.73;;;5.45;;
60430;SDS011;46285;45.122;20.726;2022-07-23T06:26:44;12.50;;;4.40;;
60430;SDS011;46285;45.122;20.726;2022-07-23T06:29:11;13.50;;;4.85;;
60430;SDS011;46285;45.122;20.726;2022-07-23T06:31:37;14.73;;;4.75;;
60430;SDS011;46285;45.122;20.726;2022-07-23T06:34:03;11.20;;;5.30;;
60430;SDS011;46285;45.122;20.726;2022-07-23T06:36:29;14.95;;;4.40;;
60430;SDS011;46285;45.122;20.726;2022-07-23T06:38:55;19.17;;;4.68;;
60430;SDS011;46285;45.122;20.726;2022-07-23T06:41:21;13.30;;;5.00;;
60430;SDS011;46285;45.122;20.726;2022-07-23T06:43:48;11.98;;;4.47;;
60430;SDS011;46285;45.122;20.726;2022-07-23T06:48:40;10.07;;;4.40;;
60430;SDS011;46285;45.122;20.726;2022-07-23T06:51:06;11.75;;;4.47;;
60430;SDS011;46285;45.122;20.726;2022-07-23T06:53:33;19.27;;;5.47;;
60430;SDS011;46285;45.122;20.726;2022-07-23T06:55:59;16.35;;;4.88;;
60430;SDS011;46285;45.122;20.726;2022-07-23T06:58:25;11.20;;;4.50;;
60430;SDS011;46285;45.122;20.726;2022-07-23T07:00:51;10.70;;;4.32;;
60430;SDS011;46285;45.122;20.726;2022-07-23T07:03:17;8.27;;;4.20;;
60430;SDS011;46285;45.122;20.726;2022-07-23T07:05:44;11.85;;;4.25;;
60430;SDS011;46285;45.122;20.726;2022-07-23T07:10:36;11.45;;;4.75;;
60430;SDS011;46285;45.122;20.726;2022-07-23T07:13:02;9.45;;;4.05;;
60430;SDS011;46285;45.122;20.726;2022-07-23T07:15:29;9.60;;;4.35;;
60430;SDS011;46285;45.122;20.726;2022-07-23T07:17:55;12.10;;;5.05;;
60430;SDS011;46285;45.122;20.726;2022-07-23T07:20:21;8.82;;;4.70;;
60430;SDS011;46285;45.122;20.726;2022-07-23T07:22:48;15.18;;;5.05;;
60430;SDS011;46285;45.122;20.726;2022-07-23T07:25:15;9.52;;;4.38;;
60430;SDS011;46285;45.122;20.726;2022-07-23T07:27:41;9.45;;;4.10;;
60430;SDS011;46285;45.122;20.726;2022-07-23T07:30:09;14.05;;;4.38;;
60430;SDS011;46285;45.122;20.726;2022-07-23T07:32:36;7.38;;;4.00;;
60430;SDS011;46285;45.122;20.726;2022-07-23T07:35:03;9.65;;;4.25;;
60430;SDS011;46285;45.122;20.726;2022-07-23T07:37:30;10.52;;;4.80;;
60430;SDS011;46285;45.122;20.726;2022-07-23T07:39:57;11.05;;;4.45;;
60430;SDS011;46285;45.122;20.726;2022-07-23T07:42:23;14.18;;;3.97;;
60430;SDS011;46285;45.122;20.726;2022-07-23T07:44:49;11.75;;;4.03;;
60430;SDS011;46285;45.122;20.726;2022-07-23T07:47:15;11.48;;;4.47;;
60430;SDS011;46285;45.122;20.726;2022-07-23T07:49:42;9.27;;;4.55;;
60430;SDS011;46285;45.122;20.726;2022-07-23T07:52:08;9.05;;;4.38;;
60430;SDS011;46285;45.122;20.726;2022-07-23T07:57:01;17.02;;;5.53;;
60430;SDS011;46285;45.122;20.726;2022-07-23T07:59:27;13.82;;;5.32;;
60430;SDS011;46285;45.122;20.726;2022-07-23T08:01:53;15.43;;;5.20;;
60430;SDS011;46285;45.122;20.726;2022-07-23T08:04:19;12.77;;;5.68;;
60430;SDS011;46285;45.122;20.726;2022-07-23T08:06:45;14.82;;;5.20;;
60430;SDS011;46285;45.122;20.726;2022-07-23T08:09:11;18.58;;;4.63;;
60430;SDS011;46285;45.122;20.726;2022-07-23T08:11:38;15.50;;;4.32;;
60430;SDS011;46285;45.122;20.726;2022-07-23T08:14:04;14.73;;;4.35;;
60430;SDS011;46285;45.122;20.726;2022-07-23T08:16:30;14.07;;;5.10;;
60430;SDS011;46285;45.122;20.726;2022-07-23T08:18:56;10.52;;;4.03;;
60430;SDS011;46285;45.122;20.726;2022-07-23T08:21:23;11.32;;;3.97;;
60430;SDS011;46285;45.122;20.726;2022-07-23T08:23:49;11.77;;;3.85;;
60430;SDS011;46285;45.122;20.726;2022-07-23T08:26:15;14.82;;;4.22;;
60430;SDS011;46285;45.122;20.726;2022-07-23T08:28:41;12.77;;;3.88;;
60430;SDS011;46285;45.122;20.726;2022-07-23T08:31:07;14.82;;;3.90;;
60430;SDS011;46285;45.122;20.726;2022-07-23T08:33:36;21.08;;;4.57;;
60430;SDS011;46285;45.122;20.726;2022-07-23T08:36:02;11.90;;;4.72;;
60430;SDS011;46285;45.122;20.726;2022-07-23T08:38:29;10.85;;;3.85;;
60430;SDS011;46285;45.122;20.726;2022-07-23T08:40:55;7.95;;;3.13;;
60430;SDS011;46285;45.122;20.726;2022-07-23T08:43:24;11.75;;;3.63;;
60430;SDS011;46285;45.122;20.726;2022-07-23T08:45:52;8.82;;;4.32;;
60430;SDS011;46285;45.122;20.726;2022-07-23T08:48:22;8.68;;;3.53;;
60430;SDS011;46285;45.122;20.726;2022-07-23T08:50:50;10.50;;;4.25;;
60430;SDS011;46285;45.122;20.726;2022-07-23T08:53:17;11.43;;;4.65;;
60430;SDS011;46285;45.122;20.726;2022-07-23T08:55:44;15.73;;;4.22;;
60430;SDS011;46285;45.122;20.726;2022-07-23T08:58:10;14.77;;;4.70;;
60430;SDS011;46285;45.122;20.726;2022-07-23T09:00:36;11.65;;;4.20;;
60430;SDS011;46285;45.122;20.726;2022-07-23T09:03:03;13.25;;;3.95;;
60430;SDS011;46285;45.122;20.726;2022-07-23T09:05:32;10.00;;;3.40;;
60430;SDS011;46285;45.122;20.726;2022-07-23T09:08:08;12.38;;;4.53;;
60430;SDS011;46285;45.122;20.726;2022-07-23T09:13:01;12.40;;;4.20;;
60430;SDS011;46285;45.122;20.726;2022-07-23T09:15:27;14.68;;;4.05;;
60430;SDS011;46285;45.122;20.726;2022-07-23T09:17:53;10.18;;;3.40;;
60430;SDS011;46285;45.122;20.726;2022-07-23T09:20:20;14.52;;;4.82;;
60430;SDS011;46285;45.122;20.726;2022-07-23T09:22:46;12.13;;;4.03;;
60430;SDS011;46285;45.122;20.726;2022-07-23T09:30:12;12.38;;;4.55;;
60430;SDS011;46285;45.122;20.726;2022-07-23T09:32:39;9.68;;;4.55;;
60430;SDS011;46285;45.122;20.726;2022-07-23T09:35:06;10.48;;;4.63;;
60430;SDS011;46285;45.122;20.726;2022-07-23T09:37:32;14.57;;;4.78;;
60430;SDS011;46285;45.122;20.726;2022-07-23T09:40:08;10.15;;;4.95;;
60430;SDS011;46285;45.122;20.726;2022-07-23T09:42:34;12.85;;;5.40;;
60430;SDS011;46285;45.122;20.726;2022-07-23T09:47:29;13.88;;;4.97;;
60430;SDS011;46285;45.122;20.726;2022-07-23T09:50:03;9.15;;;4.35;;
60430;SDS011;46285;45.122;20.726;2022-07-23T09:52:34;13.27;;;4.82;;
60430;SDS011;46285;45.122;20.726;2022-07-23T09:55:02;12.13;;;4.55;;
60430;SDS011;46285;45.122;20.726;2022-07-23T09:57:29;9.93;;;4.30;;
60430;SDS011;46285;45.122;20.726;2022-07-23T09:59:57;12.32;;;6.28;;
60430;SDS011;46285;45.122;20.726;2022-07-23T10:02:24;12.02;;;4.90;;
60430;SDS011;46285;45.122;20.726;2022-07-23T10:04:51;11.70;;;4.25;;
60430;SDS011;46285;45.122;20.726;2022-07-23T10:07:20;13.32;;;4.65;;
60430;SDS011;46285;45.122;20.726;2022-07-23T10:09:47;10.68;;;4.10;;
60430;SDS011;46285;45.122;20.726;2022-07-23T10:12:15;15.55;;;4.25;;
60430;SDS011;46285;45.122;20.726;2022-07-23T10:15:02;9.10;;;3.90;;
60430;SDS011;46285;45.122;20.726;2022-07-23T10:17:30;13.95;;;4.50;;
60430;SDS011;46285;45.122;20.726;2022-07-23T10:19:56;10.95;;;4.63;;
60430;SDS011;46285;45.122;20.726;2022-07-23T10:22:23;13.30;;;4.55;;
60430;SDS011;46285;45.122;20.726;2022-07-23T10:24:58;14.68;;;4.65;;
60430;SDS011;46285;45.122;20.726;2022-07-23T10:27:39;9.90;;;4.22;;
60430;SDS011;46285;45.122;20.726;2022-07-23T10:35:10;14.23;;;3.83;;
60430;SDS011;46285;45.122;20.726;2022-07-23T10:37:39;11.40;;;4.03;;
60430;SDS011;46285;45.122;20.726;2022-07-23T10:42:36;8.93;;;3.67;;
60430;SDS011;46285;45.122;20.726;2022-07-23T10:47:48;17.40;;;4.47;;
60430;SDS011;46285;45.122;20.726;2022-07-23T10:50:18;15.88;;;4.45;;
60430;SDS011;46285;45.122;20.726;2022-07-23T10:55:46;8.77;;;3.75;;
60430;SDS011;46285;45.122;20.726;2022-07-23T10:58:25;11.00;;;3.50;;
60430;SDS011;46285;45.122;20.726;2022-07-23T11:00:59;7.70;;;3.40;;
60430;SDS011;46285;45.122;20.726;2022-07-23T11:03:30;9.75;;;3.97;;
60430;SDS011;46285;45.122;20.726;2022-07-23T11:05:57;12.02;;;4.20;;
60430;SDS011;46285;45.122;20.726;2022-07-23T11:08:24;10.30;;;4.20;;
60430;SDS011;46285;45.122;20.726;2022-07-23T11:13:32;9.32;;;3.50;;
60430;SDS011;46285;45.122;20.726;2022-07-23T11:32:20;8.00;;;3.67;;
60430;SDS011;46285;45.122;20.726;2022-07-23T11:34:48;8.75;;;3.72;;
60430;SDS011;46285;45.122;20.726;2022-07-23T11:37:27;8.60;;;3.70;;
60430;SDS011;46285;45.122;20.726;2022-07-23T11:39:54;9.75;;;3.45;;
60430;SDS011;46285;45.122;20.726;2022-07-23T11:42:21;10.10;;;3.85;;
60430;SDS011;46285;45.122;20.726;2022-07-23T11:44:48;10.50;;;4.10;;
60430;SDS011;46285;45.122;20.726;2022-07-23T11:47:14;10.50;;;3.78;;
60430;SDS011;46285;45.122;20.726;2022-07-23T11:54:33;7.15;;;3.30;;
60430;SDS011;46285;45.122;20.726;2022-07-23T11:57:00;9.45;;;3.30;;
60430;SDS011;46285;45.122;20.726;2022-07-23T11:59:27;7.47;;;2.92;;
60430;SDS011;46285;45.122;20.726;2022-07-23T12:02:01;8.23;;;2.88;;
60430;SDS011;46285;45.122;20.726;2022-07-23T12:04:40;7.28;;;3.10;;
60430;SDS011;46285;45.122;20.726;2022-07-23T12:09:55;12.45;;;3.72;;
60430;SDS011;46285;45.122;20.726;2022-07-23T12:12:21;11.38;;;3.75;;
60430;SDS011;46285;45.122;20.726;2022-07-23T12:14:53;6.90;;;3.38;;
60430;SDS011;46285;45.122;20.726;2022-07-23T12:17:20;13.52;;;3.53;;
60430;SDS011;46285;45.122;20.726;2022-07-23T12:19:47;7.30;;;3.33;;
60430;SDS011;46285;45.122;20.726;2022-07-23T12:22:13;9.25;;;3.72;;
60430;SDS011;46285;45.122;20.726;2022-07-23T12:27:12;8.63;;;3.78;;
60430;SDS011;46285;45.122;20.726;2022-07-23T12:29:39;10.05;;;3.33;;
60430;SDS011;46285;45.122;20.726;2022-07-23T12:34:44;11.75;;;3.38;;
60430;SDS011;46285;45.122;20.726;2022-07-23T12:37:27;15.77;;;4.65;;
60430;SDS011;46285;45.122;20.726;2022-07-23T12:39:54;11.98;;;4.05;;
60430;SDS011;46285;45.122;20.726;2022-07-23T12:42:21;10.15;;;3.13;;
60430;SDS011;46285;45.122;20.726;2022-07-23T12:47:50;7.18;;;3.75;;
60430;SDS011;46285;45.122;20.726;2022-07-23T12:53:08;7.88;;;3.40;;
60430;SDS011;46285;45.122;20.726;2022-07-23T12:58:04;7.45;;;3.53;;
60430;SDS011;46285;45.122;20.726;2022-07-23T13:00:31;6.35;;;2.55;;
60430;SDS011;46285;45.122;20.726;2022-07-23T13:02:58;8.18;;;3.40;;
60430;SDS011;46285;45.122;20.726;2022-07-23T13:05:24;11.18;;;3.92;;
60430;SDS011;46285;45.122;20.726;2022-07-23T13:07:50;7.93;;;3.20;;
60430;SDS011;46285;45.122;20.726;2022-07-23T13:10:17;15.13;;;10.52;;
60430;SDS011;46285;45.122;20.726;2022-07-23T13:12:43;9.73;;;5.78;;
60430;SDS011;46285;45.122;20.726;2022-07-23T13:15:09;7.82;;;3.55;;
60430;SDS011;46285;45.122;20.726;2022-07-23T13:17:35;9.43;;;3.90;;
60430;SDS011;46285;45.122;20.726;2022-07-23T13:20:02;8.23;;;4.13;;
60430;SDS011;46285;45.122;20.726;2022-07-23T13:22:28;8.90;;;3.55;;
60430;SDS011;46285;45.122;20.726;2022-07-23T13:24:55;9.45;;;4.43;;
60430;SDS011;46285;45.122;20.726;2022-07-23T13:27:21;9.15;;;3.97;;
60430;SDS011;46285;45.122;20.726;2022-07-23T13:29:47;12.10;;;3.28;;
60430;SDS011;46285;45.122;20.726;2022-07-23T13:32:13;9.73;;;4.38;;
60430;SDS011;46285;45.122;20.726;2022-07-23T13:34:39;11.20;;;3.95;;
60430;SDS011;46285;45.122;20.726;2022-07-23T13:37:06;8.68;;;4.03;;
60430;SDS011;46285;45.122;20.726;2022-07-23T13:39:32;8.02;;;4.15;;
60430;SDS011;46285;45.122;20.726;2022-07-23T13:41:58;7.43;;;3.65;;
60430;SDS011;46285;45.122;20.726;2022-07-23T13:44:24;10.45;;;4.22;;
60430;SDS011;46285;45.122;20.726;2022-07-23T13:49:17;11.70;;;4.38;;
60430;SDS011;46285;45.122;20.726;2022-07-23T13:51:43;9.98;;;3.42;;
60430;SDS011;46285;45.122;20.726;2022-07-23T13:54:09;8.93;;;3.80;;
60430;SDS011;46285;45.122;20.726;2022-07-23T13:56:35;6.88;;;3.65;;
60430;SDS011;46285;45.122;20.726;2022-07-23T13:59:02;8.63;;;4.25;;
60430;SDS011;46285;45.122;20.726;2022-07-23T14:03:54;8.27;;;4.30;;
60430;SDS011;46285;45.122;20.726;2022-07-23T14:06:20;9.77;;;4.30;;
60430;SDS011;46285;45.122;20.726;2022-07-23T14:11:13;6.88;;;3.80;;
60430;SDS011;46285;45.122;20.726;2022-07-23T14:13:39;13.25;;;4.63;;
60430;SDS011;46285;45.122;20.726;2022-07-23T14:18:31;8.25;;;4.60;;
60430;SDS011;46285;45.122;20.726;2022-07-23T14:20:57;10.75;;;4.75;;
60430;SDS011;46285;45.122;20.726;2022-07-23T14:23:23;8.93;;;4.25;;
60430;SDS011;46285;45.122;20.726;2022-07-23T14:25:49;9.65;;;4.40;;
60430;SDS011;46285;45.122;20.726;2022-07-23T14:28:16;9.13;;;4.40;;
60430;SDS011;46285;45.122;20.726;2022-07-23T14:30:42;10.40;;;4.38;;
60430;SDS011;46285;45.122;20.726;2022-07-23T14:33:08;7.07;;;4.32;;
60430;SDS011;46285;45.122;20.726;2022-07-23T14:35:34;7.97;;;4.43;;
60430;SDS011;46285;45.122;20.726;2022-07-23T14:38:01;8.68;;;4.75;;
60430;SDS011;46285;45.122;20.726;2022-07-23T14:40:27;11.35;;;4.47;;
60430;SDS011;46285;45.122;20.726;2022-07-23T14:42:53;12.80;;;5.35;;
60430;SDS011;46285;45.122;20.726;2022-07-23T14:45:19;12.82;;;5.93;;
60430;SDS011;46285;45.122;20.726;2022-07-23T14:47:49;9.95;;;5.10;;
60430;SDS011;46285;45.122;20.726;2022-07-23T14:50:15;9.55;;;4.68;;
60430;SDS011;46285;45.122;20.726;2022-07-23T14:55:11;9.60;;;4.30;;
60430;SDS011;46285;45.122;20.726;2022-07-23T14:57:38;10.75;;;4.13;;
60430;SDS011;46285;45.122;20.726;2022-07-23T15:00:05;7.10;;;4.30;;
60430;SDS011;46285;45.122;20.726;2022-07-23T15:02:31;11.93;;;4.82;;
60430;SDS011;46285;45.122;20.726;2022-07-23T15:05:00;11.25;;;4.43;;
60430;SDS011;46285;45.122;20.726;2022-07-23T15:07:28;10.23;;;4.15;;
60430;SDS011;46285;45.122;20.726;2022-07-23T15:10:03;11.68;;;4.05;;
60430;SDS011;46285;45.122;20.726;2022-07-23T15:12:31;8.80;;;4.50;;
60430;SDS011;46285;45.122;20.726;2022-07-23T15:14:58;9.15;;;4.70;;
60430;SDS011;46285;45.122;20.726;2022-07-23T15:17:28;9.55;;;3.97;;
60430;SDS011;46285;45.122;20.726;2022-07-23T15:20:06;8.10;;;3.80;;
60430;SDS011;46285;45.122;20.726;2022-07-23T15:22:45;9.02;;;4.07;;
60430;SDS011;46285;45.122;20.726;2022-07-23T15:25:13;14.00;;;4.30;;
60430;SDS011;46285;45.122;20.726;2022-07-23T15:27:42;7.15;;;3.50;;
60430;SDS011;46285;45.122;20.726;2022-07-23T15:30:10;8.70;;;3.92;;
60430;SDS011;46285;45.122;20.726;2022-07-23T15:32:36;12.55;;;4.70;;
60430;SDS011;46285;45.122;20.726;2022-07-23T15:35:02;9.02;;;3.90;;
60430;SDS011;46285;45.122;20.726;2022-07-23T15:37:32;9.57;;;4.03;;
60430;SDS011;46285;45.122;20.726;2022-07-23T15:42:24;11.30;;;3.78;;
60430;SDS011;46285;45.122;20.726;2022-07-23T15:44:50;9.68;;;3.88;;
60430;SDS011;46285;45.122;20.726;2022-07-23T15:47:16;10.05;;;3.72;;
60430;SDS011;46285;45.122;20.726;2022-07-23T15:49:44;6.93;;;3.50;;